Terminal Aerodrome Forecast
Issued by NWS

Home | Current Version | Previous Version | Text Only | Print | Product List | Glossary Off
Versions: 1 2 3 4 5 6 7 8 9 10 11 12 13 14

253
FTUS43 KBIS 202334
TAFJMS
TAF
KJMS 202334Z 2100/2124 14008KT P6SM FEW250
     FM210500 10007KT P6SM FEW250
     FM210900 35006KT P6SM BKN150
     FM211200 35006KT P6SM SCT150=

USA.gov is the U.S. government's official web portal to all federal, state and local government web resources and services.